Time;durP1;ratioP1;P1;durP2;ratioP2;P2;SDS_P1;SDS_P2;PMS_P1;PMS_P2;Temp;Humidity;BMP_temperature;BMP_pressure;BME280_temperature;BME280_humidity;BME280_pressure;Samples;Min_cycle;Max_cycle;Signal;HPM_P1;HPM_P2
2021/04/15 00:01:08;;;;;;;14.33;7.90;;;;;;;8.17;71.65;100065.59;126267;1099;104143;-76
2021/04/15 00:03:37;;;;;;;15.33;7.37;;;;;;;8.16;71.05;100058.57;126217;1099;104150;-77
2021/04/15 00:06:09;;;;;;;11.63;6.33;;;;;;;8.13;71.20;100061.06;126279;1099;104155;-76
2021/04/15 00:08:38;;;;;;;14.60;7.30;;;;;;;8.10;70.92;100059.22;126263;1099;104793;-76
2021/04/15 00:11:07;;;;;;;14.07;7.37;;;;;;;8.10;71.38;100056.60;126333;1099;104248;-76
2021/04/15 00:13:39;;;;;;;16.23;7.60;;;;;;;8.09;71.75;100052.23;126285;1098;104274;-77
2021/04/15 00:16:09;;;;;;;19.47;8.57;;;;;;;8.10;71.51;100054.91;126284;1099;104753;-77
2021/04/15 00:18:39;;;;;;;16.57;8.57;;;;;;;8.13;71.23;100059.33;126251;1099;104174;-77
2021/04/15 00:21:09;;;;;;;17.30;8.87;;;;;;;8.09;71.47;100055.72;126299;1098;104225;-77
2021/04/15 00:23:39;;;;;;;17.30;8.63;;;;;;;8.05;71.77;100058.16;126249;1099;104271;-77
2021/04/15 00:26:10;;;;;;;17.43;9.37;;;;;;;8.02;71.35;100050.20;126217;1099;105312;-77
2021/04/15 00:28:39;;;;;;;15.57;8.50;;;;;;;7.99;71.36;100056.19;126254;1099;104143;-76
2021/04/15 00:31:09;;;;;;;16.60;8.40;;;;;;;8.00;71.64;100049.26;126287;1098;104140;-77
2021/04/15 00:33:39;;;;;;;16.63;8.17;;;;;;;8.01;71.67;100045.80;126278;1099;104179;-76
2021/04/15 00:36:12;;;;;;;20.17;8.93;;;;;;;7.99;71.82;100048.34;126249;1099;105476;-76
2021/04/15 00:38:41;;;;;;;17.97;7.90;;;;;;;7.97;71.60;100051.75;126298;1098;104133;-77
2021/04/15 00:41:11;;;;;;;17.77;8.30;;;;;;;7.97;71.65;100050.02;126259;1099;104267;-77
2021/04/15 00:43:44;;;;;;;15.35;7.80;;;;;;;7.97;71.74;100051.75;126296;1099;104146;-76
2021/04/15 00:46:42;;;;;;;14.03;7.20;;;;;;;7.97;72.06;100043.91;126279;1098;104389;-76
2021/04/15 00:49:21;;;;;;;16.67;7.83;;;;;;;7.99;72.37;100050.95;126305;1099;104291;-77
2021/04/15 00:51:53;;;;;;;14.27;7.37;;;;;;;7.99;71.73;100047.47;126286;1099;104258;-77
2021/04/15 00:54:39;;;;;;;15.30;8.00;;;;;;;7.98;72.03;100048.28;126189;1099;104576;-78
2021/04/15 00:57:16;;;;;;;13.90;6.67;;;;;;;8.01;72.12;100051.02;126264;1099;104136;-77
2021/04/15 00:59:45;;;;;;;14.23;6.90;;;;;;;8.03;72.47;100049.38;126282;1099;104147;-77
2021/04/15 01:02:19;;;;;;;12.00;6.50;;;;;;;8.03;72.21;100046.77;126296;1099;104284;-77
2021/04/15 01:04:49;;;;;;;12.65;6.50;;;;;;;8.00;72.24;100050.14;126279;1098;104223;-77
2021/04/15 01:07:18;;;;;;;11.97;6.60;;;;;;;8.00;72.47;100041.42;126293;1099;104198;-77
2021/04/15 01:09:49;;;;;;;12.87;6.30;;;;;;;7.98;72.22;100056.12;125234;1099;104223;-76
2021/04/15 01:12:34;;;;;;;14.60;7.27;;;;;;;7.95;72.04;100049.08;125265;1099;104201;-76
2021/04/15 01:15:13;;;;;;;13.47;6.37;;;;;;;7.90;72.05;100046.28;125294;1099;104162;-77
2021/04/15 01:17:50;;;;;;;12.53;6.27;;;;;;;7.88;72.20;100045.34;125284;1102;117819;-76
2021/04/15 01:20:44;;;;;;;12.57;6.13;;;;;;;7.90;72.79;100045.41;125214;1099;104312;-77
2021/04/15 01:23:21;;;;;;;13.80;6.75;;;;;;;7.89;72.29;100041.88;125293;1099;104425;-76
2021/04/15 01:26:10;;;;;;;12.73;6.47;;;;;;;7.90;72.37;100040.18;125199;1099;105540;-78
2021/04/15 01:28:59;;;;;;;14.20;6.50;;;;;;;7.89;72.65;100038.39;125277;1099;104319;-77
2021/04/15 01:31:40;;;;;;;11.97;5.57;;;;;;;7.89;72.54;100039.27;125294;1102;104285;-77
2021/04/15 01:34:15;;;;;;;14.03;6.93;;;;;;;7.90;72.29;100035.84;125287;1099;104231;-77
2021/04/15 01:36:51;;;;;;;16.27;7.00;;;;;;;7.94;72.83;100043.80;125251;1099;104594;-77
2021/04/15 01:39:24;;;;;;;11.55;6.25;;;;;;;7.96;72.91;100040.39;125262;1102;104222;-77
2021/04/15 01:41:58;;;;;;;13.47;5.97;;;;;;;7.96;73.06;100042.12;126008;1099;104268;-76
2021/04/15 01:44:32;;;;;;;10.80;5.83;;;;;;;7.92;72.56;100039.39;126298;1098;104267;-76
2021/04/15 01:47:08;;;;;;;11.43;5.60;;;;;;;7.95;73.00;100041.24;126268;1099;104622;-77
2021/04/15 01:49:41;;;;;;;13.33;6.03;;;;;;;7.96;72.43;100039.51;126265;1099;104347;-76
2021/04/15 01:52:13;;;;;;;10.13;5.80;;;;;;;7.90;73.11;100038.45;126286;1099;104130;-76
2021/04/15 01:54:48;;;;;;;11.30;6.00;;;;;;;7.92;72.93;100044.61;126321;1099;104136;-76
2021/04/15 01:57:25;;;;;;;11.33;5.90;;;;;;;7.91;72.83;100041.94;126235;1099;104221;-78
2021/04/15 02:00:01;;;;;;;9.37;5.53;;;;;;;7.89;72.88;100041.00;126281;1098;104382;-77
2021/04/15 02:02:37;;;;;;;11.53;6.13;;;;;;;7.86;73.33;100043.49;126311;1099;104149;-77
2021/04/15 02:05:13;;;;;;;9.93;5.70;;;;;;;7.83;72.94;100041.64;126284;1098;104169;-77
2021/04/15 02:07:52;;;;;;;11.83;6.20;;;;;;;7.82;73.27;100044.19;126275;1099;104137;-77
2021/04/15 02:10:22;;;;;;;10.15;5.80;;;;;;;7.81;72.81;100045.92;126292;1099;104144;-76
2021/04/15 02:12:54;;;;;;;11.70;6.27;;;;;;;7.82;73.02;100041.58;126270;1098;104214;-76
2021/04/15 02:15:28;;;;;;;12.17;5.70;;;;;;;7.84;73.09;100043.44;126332;1099;104142;-76
2021/04/15 02:18:03;;;;;;;12.13;5.70;;;;;;;7.83;73.26;100049.48;126262;1099;104340;-77
2021/04/15 02:20:32;;;;;;;12.47;5.50;;;;;;;7.84;73.39;100045.16;126329;1099;104149;-77
2021/04/15 02:23:07;;;;;;;9.15;5.40;;;;;;;7.83;73.30;100039.03;126301;1099;104396;-77
2021/04/15 02:25:43;;;;;;;10.57;5.90;;;;;;;7.82;73.53;100041.58;126259;1099;104175;-77
2021/04/15 02:28:18;;;;;;;14.27;6.27;;;;;;;7.83;73.16;100045.98;126236;1099;104261;-76
2021/04/15 02:30:53;;;;;;;13.40;6.73;;;;;;;7.83;73.49;100043.38;126313;1099;104139;-77
2021/04/15 02:33:26;;;;;;;12.33;6.47;;;;;;;7.84;73.49;100045.16;126302;1099;104149;-77
2021/04/15 02:35:59;;;;;;;12.23;6.80;;;;;;;7.83;72.96;100048.59;126278;1099;104204;-77
2021/04/15 02:38:34;;;;;;;12.30;6.00;;;;;;;7.79;73.78;100049.30;126219;1099;104147;-77
2021/04/15 02:41:07;;;;;;;11.43;5.80;;;;;;;7.76;73.44;100050.09;126305;1098;104146;-77
2021/04/15 02:43:42;;;;;;;11.27;6.00;;;;;;;7.72;73.49;100058.61;126304;1099;104142;-77
2021/04/15 02:46:15;;;;;;;12.90;6.20;;;;;;;7.70;73.67;100044.62;126337;1099;104149;-77
2021/04/15 02:48:48;;;;;;;11.80;5.50;;;;;;;7.68;73.60;100049.78;126227;1099;104184;-77
2021/04/15 02:51:22;;;;;;;14.07;6.90;;;;;;;7.66;73.75;100047.92;126110;1099;104398;-77
2021/04/15 02:53:58;;;;;;;14.27;6.23;;;;;;;7.66;73.71;100053.15;126219;1099;104269;-76
2021/04/15 02:56:33;;;;;;;12.83;6.40;;;;;;;7.67;73.57;100049.72;126092;1099;104174;-76
2021/04/15 02:59:08;;;;;;;12.37;6.23;;;;;;;7.66;74.11;100054.03;126216;1099;104271;-77
2021/04/15 03:01:42;;;;;;;14.60;6.47;;;;;;;7.67;73.57;100052.33;126185;1099;104765;-78
2021/04/15 03:04:19;;;;;;;11.93;6.17;;;;;;;7.66;73.33;100061.86;126147;1099;104271;-77
2021/04/15 03:06:52;;;;;;;14.10;6.40;;;;;;;7.64;73.74;100053.08;126241;1099;104270;-76
2021/04/15 03:09:23;;;;;;;12.50;6.47;;;;;;;7.64;73.76;100057.42;126245;1099;104669;-76
2021/04/15 03:11:56;;;;;;;10.97;6.17;;;;;;;7.66;74.09;100064.47;126285;1099;104595;-77
2021/04/15 03:14:32;;;;;;;13.43;6.57;;;;;;;7.65;74.20;100064.41;126311;1099;104265;-77
2021/04/15 03:17:04;;;;;;;12.17;6.10;;;;;;;7.62;74.20;100059.06;126283;1099;104153;-77
2021/04/15 03:19:38;;;;;;;12.20;6.00;;;;;;;7.59;74.24;100061.55;126249;1099;104143;-77
2021/04/15 03:22:13;;;;;;;10.23;5.67;;;;;;;7.57;73.93;100071.93;126238;1098;104188;-76
2021/04/15 03:24:45;;;;;;;12.40;6.13;;;;;;;7.58;74.13;100072.84;126299;1099;104155;-77
2021/04/15 03:27:19;;;;;;;10.77;5.60;;;;;;;7.56;74.33;100076.27;126265;1099;104197;-76
2021/04/15 03:29:48;;;;;;;;;;;;;;;7.52;74.29;100081.30;126218;1099;104146;-78
2021/04/15 03:32:22;;;;;;;13.73;5.97;;;;;;;7.49;74.44;100073.34;126301;1098;104248;-77
2021/04/15 03:35:00;;;;;;;11.50;5.20;;;;;;;7.46;74.41;100070.61;126279;1099;104110;-76
2021/04/15 03:37:38;;;;;;;13.07;5.60;;;;;;;7.45;74.08;100074.95;126309;1099;104149;-77
2021/04/15 03:40:11;;;;;;;10.17;5.50;;;;;;;7.44;74.22;100073.16;126213;1099;104155;-77
2021/04/15 03:42:44;;;;;;;12.50;5.17;;;;;;;7.41;74.27;100078.25;126235;1099;104197;-77
2021/04/15 03:45:19;;;;;;;13.20;5.93;;;;;;;7.39;74.47;100082.52;126300;1099;104188;-76
2021/04/15 03:47:54;;;;;;;12.40;5.53;;;;;;;7.35;73.99;100089.34;126285;1099;104608;-77
2021/04/15 03:50:26;;;;;;;13.00;5.93;;;;;;;7.31;74.00;100086.54;126216;1099;104293;-76
2021/04/15 03:52:59;;;;;;;14.10;6.20;;;;;;;7.28;74.12;100092.52;126251;1098;104416;-76
2021/04/15 03:55:32;;;;;;;14.33;6.53;;;;;;;7.28;74.55;100102.07;126264;1099;104261;-77
2021/04/15 03:58:06;;;;;;;13.63;6.13;;;;;;;7.25;74.52;100099.33;126192;1099;104184;-77
2021/04/15 04:00:41;;;;;;;16.87;6.80;;;;;;;7.22;74.20;100104.42;126155;1099;104185;-77
2021/04/15 04:03:15;;;;;;;16.03;6.93;;;;;;;7.19;74.52;100113.00;126105;1099;104166;-77
2021/04/15 04:05:45;;;;;;;;;;;;;;;7.20;74.65;100113.06;126153;1099;104175;-77
2021/04/15 04:08:19;;;;;;;14.40;6.90;;;;;;;7.18;74.29;100113.81;125992;1099;104181;-78
2021/04/15 04:10:48;;;;;;;;;;;;;;;7.14;74.78;100119.75;125936;1099;104630;-78
2021/04/15 04:13:28;;;;;;;13.70;6.97;;;;;;;7.12;74.24;100124.90;126226;1099;104185;-77
2021/04/15 04:16:05;;;;;;;15.80;7.23;;;;;;;7.08;74.54;100127.30;126327;1097;104208;-77
2021/04/15 04:18:47;;;;;;;15.97;7.90;;;;;;;7.08;74.28;100124.70;126306;1099;104150;-77
2021/04/15 04:21:21;;;;;;;17.07;7.73;;;;;;;7.07;74.40;100126.39;126193;1099;108213;-78
2021/04/15 04:23:58;;;;;;;16.03;7.90;;;;;;;7.06;74.48;100132.45;126220;1099;104463;-79
2021/04/15 04:27:38;;;;;;;15.53;7.73;;;;;;;7.05;74.40;100130.66;125195;1102;104173;-79
2021/04/15 04:30:12;;;;;;;13.73;7.47;;;;;;;7.04;74.50;100130.59;125077;1102;104181;-77
2021/04/15 04:32:42;;;;;;;13.50;7.03;;;;;;;7.06;74.58;100132.45;125168;1102;104188;-78
2021/04/15 04:35:17;;;;;;;15.53;7.90;;;;;;;7.03;74.26;100124.49;125194;1102;104261;-78
2021/04/15 04:37:49;;;;;;;17.00;7.80;;;;;;;7.05;74.66;100140.21;124889;1102;104158;-77
2021/04/15 04:40:21;;;;;;;16.80;7.73;;;;;;;6.99;74.50;100131.27;125156;1102;104185;-77
2021/04/15 04:42:55;;;;;;;16.70;8.00;;;;;;;6.97;74.59;100137.27;125202;1102;104271;-77
2021/04/15 04:45:25;;;;;;;17.50;8.27;;;;;;;6.95;74.29;100137.20;125125;1102;104247;-76
2021/04/15 04:48:00;;;;;;;15.27;7.60;;;;;;;6.94;74.68;100143.23;125070;1102;104350;-77
2021/04/15 04:50:39;;;;;;;12.80;6.70;;;;;;;6.90;74.70;100140.41;126048;1099;104306;-77
2021/04/15 04:54:55;;;;;;;14.17;7.00;;;;;;;6.82;74.52;100143.59;125097;1101;104525;-76
2021/04/15 04:57:32;;;;;;;17.67;8.53;;;;;;;6.80;74.27;100141.72;125070;1102;104143;-75
2021/04/15 05:00:07;;;;;;;17.90;7.93;;;;;;;6.74;74.62;100152.76;124989;1102;104143;-75
2021/04/15 05:02:34;;;;;;;;;;;;;;;6.75;74.82;100143.24;124952;1102;104168;-76
2021/04/15 05:05:06;;;;;;;16.20;7.40;;;;;;;6.74;74.56;100146.66;124957;1102;102188;-76
2021/04/15 05:07:37;;;;;;;16.47;7.93;;;;;;;6.72;74.73;100149.20;126113;1101;101650;-76
2021/04/15 05:10:07;;;;;;;16.27;7.53;;;;;;;6.72;75.04;100143.98;125029;1102;104147;-76
2021/04/15 05:12:36;;;;;;;16.60;8.00;;;;;;;6.75;74.58;100151.95;125925;1099;104146;-76
2021/04/15 05:15:08;;;;;;;15.13;7.73;;;;;;;6.74;74.92;100152.76;125930;1099;104698;-76
2021/04/15 05:17:39;;;;;;;14.87;7.43;;;;;;;6.73;74.75;100155.30;126075;1099;104178;-76
2021/04/15 05:20:13;;;;;;;14.20;7.20;;;;;;;6.74;74.82;100155.37;126081;1099;104278;-76
2021/04/15 05:22:46;;;;;;;13.93;7.70;;;;;;;6.74;74.80;100164.92;126041;1099;104214;-76
2021/04/15 05:25:22;;;;;;;15.80;7.33;;;;;;;6.73;75.04;100161.42;125988;1099;105505;-76
2021/04/15 05:27:52;;;;;;;15.40;7.80;;;;;;;6.72;74.83;100166.57;125959;1099;104222;-75
2021/04/15 05:30:35;;;;;;;17.13;8.10;;;;;;;6.71;74.70;100157.84;125841;1099;104647;-76
2021/04/15 05:33:06;;;;;;;15.33;7.37;;;;;;;6.75;74.76;100164.98;125978;1099;104265;-76
2021/04/15 05:35:39;;;;;;;14.60;7.27;;;;;;;6.80;74.86;100158.25;125737;1099;104194;-77
2021/04/15 05:38:10;;;;;;;14.25;7.22;;;;;;;6.84;75.10;100172.34;125844;1099;104146;-76
2021/04/15 05:40:40;;;;;;;15.63;7.70;;;;;;;6.83;74.99;100157.52;125892;1099;104261;-77
2021/04/15 05:43:20;;;;;;;16.37;7.63;;;;;;;6.84;74.90;100162.80;125705;1099;104200;-76
2021/04/15 05:45:57;;;;;;;15.90;7.37;;;;;;;6.83;74.93;100163.61;125739;1099;104510;-76
2021/04/15 05:48:28;;;;;;;14.80;7.27;;;;;;;6.85;75.07;100171.50;125877;1099;104174;-75
2021/04/15 05:51:06;;;;;;;14.50;7.13;;;;;;;6.86;75.28;100162.87;125991;1099;104169;-76
2021/04/15 05:53:38;;;;;;;14.53;7.00;;;;;;;6.90;74.85;100166.49;125727;1099;104146;-75
2021/04/15 05:56:11;;;;;;;15.20;7.20;;;;;;;6.91;74.94;100173.51;126019;1099;104274;-76
2021/04/15 05:58:47;;;;;;;12.97;6.33;;;;;;;6.97;75.21;100181.61;125897;1099;104194;-76
2021/04/15 06:01:23;;;;;;;15.10;6.87;;;;;;;6.99;75.18;100173.01;125868;1099;104328;-75
2021/04/15 06:03:58;;;;;;;14.20;6.90;;;;;;;6.99;74.85;100177.34;125934;1099;104165;-75
2021/04/15 06:06:32;;;;;;;13.83;6.80;;;;;;;7.00;75.26;100168.70;125768;1099;104271;-76
2021/04/15 06:09:03;;;;;;;14.10;6.95;;;;;;;7.01;75.13;100171.38;125764;1099;104156;-76
2021/04/15 06:11:55;;;;;;;13.83;6.90;;;;;;;7.05;75.43;100169.80;125981;1099;104166;-76
2021/04/15 06:14:30;;;;;;;13.77;6.80;;;;;;;7.11;75.31;100174.41;125923;1099;104161;-75
2021/04/15 06:17:21;;;;;;;11.17;6.07;;;;;;;7.07;75.43;100170.74;125841;1098;104163;-75
2021/04/15 06:19:53;;;;;;;12.07;6.67;;;;;;;7.11;75.28;100188.33;126054;1099;104171;-75
2021/04/15 06:22:25;;;;;;;12.97;6.30;;;;;;;7.03;74.92;100192.33;125869;1099;104294;-75
2021/04/15 06:25:02;;;;;;;11.47;5.67;;;;;;;6.97;75.11;100176.39;125942;1098;104159;-75
2021/04/15 06:27:32;;;;;;;12.17;6.00;;;;;;;6.96;75.32;100179.81;125949;1099;104172;-76
2021/04/15 06:30:07;;;;;;;12.87;6.73;;;;;;;6.99;75.10;100179.95;125912;1099;104129;-76
2021/04/15 06:32:42;;;;;;;12.43;6.00;;;;;;;7.02;75.31;100178.36;126025;1099;104161;-76
2021/04/15 06:35:18;;;;;;;10.97;5.43;;;;;;;7.08;75.48;100190.80;125940;1099;104162;-77
2021/04/15 06:37:51;;;;;;;11.53;6.03;;;;;;;7.10;75.30;100176.09;125920;1099;104576;-77
2021/04/15 06:40:45;;;;;;;13.40;5.80;;;;;;;7.16;75.47;100175.48;126104;1099;104261;-76
2021/04/15 06:43:26;;;;;;;13.32;5.87;;;;;;;7.27;75.58;100178.58;125956;1099;104137;-76
2021/04/15 06:46:07;;;;;;;12.67;5.70;;;;;;;7.36;75.12;100176.36;126058;1099;104173;-77
2021/04/15 06:48:52;;;;;;;9.77;5.13;;;;;;;7.35;75.25;100190.23;126093;1099;104168;-76
2021/04/15 06:51:33;;;;;;;7.63;4.73;;;;;;;7.35;75.40;100187.62;126122;1099;104216;-76
2021/04/15 06:54:30;;;;;;;11.53;6.10;;;;;;;7.40;75.47;100188.70;125748;1099;104241;-76
2021/04/15 06:57:19;;;;;;;11.50;5.80;;;;;;;7.47;75.05;100192.49;125153;1099;104155;-75
2021/04/15 07:03:04;;;;;;;12.43;6.40;;;;;;;7.63;75.02;100194.03;125052;1102;104156;-76
2021/04/15 07:05:38;;;;;;;11.77;6.37;;;;;;;7.64;75.09;100207.16;124943;1102;104139;-76
2021/04/15 07:08:13;;;;;;;13.17;5.93;;;;;;;7.62;75.43;100197.46;124933;1102;104172;-76
2021/04/15 07:11:00;;;;;;;13.87;6.53;;;;;;;7.62;74.93;100205.30;125088;1101;104776;-76
2021/04/15 07:13:50;;;;;;;13.47;6.53;;;;;;;7.54;75.25;100198.05;124846;1102;104277;-75
2021/04/15 07:16:40;;;;;;;10.47;5.90;;;;;;;7.52;74.87;100196.19;124852;1102;104271;-76
2021/04/15 07:19:35;;;;;;;12.40;5.60;;;;;;;7.44;74.79;100206.30;124890;1101;104173;-76
2021/04/15 07:22:18;;;;;;;12.07;6.17;;;;;;;7.34;74.90;100204.13;124791;1102;105502;-76
2021/04/15 07:25:00;;;;;;;11.40;6.03;;;;;;;7.33;75.30;100203.22;124764;1102;104281;-76
2021/04/15 07:27:48;;;;;;;12.63;6.67;;;;;;;7.36;75.15;100200.73;124796;1102;104255;-75
2021/04/15 07:30:49;;;;;;;12.10;6.37;;;;;;;7.42;75.55;100197.52;124695;1102;104210;-76
2021/04/15 07:33:38;;;;;;;10.57;5.53;;;;;;;7.43;75.24;100207.11;124834;1102;104300;-76
2021/04/15 07:36:35;;;;;;;10.70;6.23;;;;;;;7.38;75.33;100211.25;124931;1102;104178;-77
2021/04/15 07:39:26;;;;;;;10.93;6.67;;;;;;;7.30;74.97;100216.13;124877;1102;104213;-76
2021/04/15 07:42:10;;;;;;;11.77;6.00;;;;;;;7.23;75.53;100213.17;124909;1102;104229;-77
2021/04/15 07:44:43;;;;;;;13.20;6.33;;;;;;;7.16;75.46;100215.52;124776;1102;104175;-76
2021/04/15 07:47:40;;;;;;;11.53;6.78;;;;;;;7.14;75.38;100209.34;124716;1102;104634;-77
2021/04/15 07:50:32;;;;;;;10.63;6.27;;;;;;;7.18;75.50;100213.89;124741;1102;104146;-76
2021/04/15 07:53:23;;;;;;;10.63;6.33;;;;;;;7.18;75.42;100213.89;124762;1102;104133;-78
2021/04/15 07:56:15;;;;;;;11.50;5.97;;;;;;;7.17;75.17;100217.31;124983;1102;104146;-77
2021/04/15 07:58:59;;;;;;;10.53;6.00;;;;;;;7.19;75.27;100210.43;124844;1102;104169;-78
2021/04/15 08:01:49;;;;;;;11.50;5.92;;;;;;;7.25;75.78;100217.66;124796;1102;104146;-76
2021/04/15 08:04:45;;;;;;;11.57;6.10;;;;;;;7.27;75.48;100217.72;124793;1102;104271;-77
2021/04/15 08:07:40;;;;;;;10.80;5.80;;;;;;;7.29;75.42;100210.84;124789;1105;104264;-76
2021/04/15 08:10:28;;;;;;;10.00;5.60;;;;;;;7.33;75.37;100217.99;125052;1102;104200;-79
2021/04/15 08:13:23;;;;;;;10.33;5.93;;;;;;;7.36;75.41;100213.79;125055;1102;104175;-78
2021/04/15 08:16:16;;;;;;;11.57;5.90;;;;;;;7.43;75.39;100222.77;124999;1102;108059;-76
2021/04/15 08:18:58;;;;;;;10.63;5.57;;;;;;;7.48;75.29;100229.11;124892;1102;104296;-76
2021/04/15 08:21:34;;;;;;;10.00;5.83;;;;;;;7.55;75.59;100227.65;125008;1102;104146;-77
2021/04/15 08:24:24;;;;;;;10.63;5.57;;;;;;;7.60;75.54;100227.85;124886;1102;104796;-76
2021/04/15 08:27:20;;;;;;;8.37;5.17;;;;;;;7.64;75.61;100220.22;124773;1102;104251;-76
2021/04/15 08:30:15;;;;;;;10.07;5.90;;;;;;;7.63;75.34;100223.64;124740;1105;104213;-77
2021/04/15 08:32:54;;;;;;;9.47;5.37;;;;;;;7.64;75.44;100227.17;124836;1106;104306;-76
2021/04/15 08:35:35;;;;;;;10.97;6.10;;;;;;;7.70;75.15;100224.82;124401;1105;104351;-78
2021/04/15 08:38:18;;;;;;;10.27;5.60;;;;;;;7.72;75.49;100225.77;124429;1105;104351;-77
2021/04/15 08:40:56;;;;;;;9.70;5.23;;;;;;;7.76;74.99;100225.08;124386;1105;104380;-76
2021/04/15 08:43:42;;;;;;;10.77;5.80;;;;;;;7.82;75.19;100229.66;124529;1105;104181;-77
2021/04/15 08:46:25;;;;;;;11.13;5.73;;;;;;;7.88;75.19;100225.61;124477;1106;104210;-76
2021/04/15 08:49:13;;;;;;;10.27;5.43;;;;;;;7.94;75.46;100234.52;124403;1109;104147;-76
2021/04/15 08:52:16;;;;;;;9.03;5.40;;;;;;;7.96;74.92;100232.84;124477;1105;104175;-76
2021/04/15 08:54:58;;;;;;;9.83;5.25;;;;;;;7.92;75.25;100235.33;124467;1105;104146;-78
2021/04/15 08:57:41;;;;;;;9.43;5.10;;;;;;;7.99;74.90;100233.86;124453;1109;104351;-77
2021/04/15 09:00:24;;;;;;;8.97;5.20;;;;;;;8.11;74.94;100223.03;124446;1106;104178;-77
2021/04/15 09:03:05;;;;;;;8.80;4.77;;;;;;;8.18;75.03;100234.63;124771;1106;104146;-77
2021/04/15 09:05:47;;;;;;;10.93;5.27;;;;;;;8.26;74.58;100222.78;124653;1106;104245;-77
2021/04/15 09:08:24;;;;;;;8.80;5.00;;;;;;;8.34;74.73;100231.81;124751;1105;104159;-77
2021/04/15 09:11:04;;;;;;;9.30;5.03;;;;;;;8.44;74.55;100238.33;124759;1105;104159;-78
2021/04/15 09:13:39;;;;;;;11.10;5.57;;;;;;;8.49;74.21;100235.91;124737;1102;104746;-78
2021/04/15 09:16:24;;;;;;;7.67;4.70;;;;;;;8.58;74.35;100234.53;124686;1102;104248;-77
2021/04/15 09:19:03;;;;;;;10.18;5.85;;;;;;;8.72;73.91;100234.20;124930;1102;104114;-77
2021/04/15 09:21:50;;;;;;;8.30;5.30;;;;;;;8.86;74.24;100232.11;124720;1102;104188;-78
2021/04/15 09:24:50;;;;;;;10.07;5.60;;;;;;;8.78;74.46;100242.28;124867;1102;104277;-78
2021/04/15 09:27:45;;;;;;;10.83;6.10;;;;;;;8.77;74.29;100232.64;125610;1099;107478;-79
2021/04/15 09:30:39;;;;;;;9.23;5.70;;;;;;;8.75;74.21;100229.96;125129;1099;102360;-79
2021/04/15 09:33:23;;;;;;;13.30;7.13;;;;;;;8.79;73.97;100236.23;125091;1099;104191;-78
2021/04/15 09:36:04;;;;;;;12.30;6.80;;;;;;;8.84;74.38;100242.52;125023;1102;104354;-77
2021/04/15 09:39:01;;;;;;;11.73;6.37;;;;;;;8.71;74.26;100243.78;125192;1099;104220;-78
2021/04/15 09:41:44;;;;;;;12.40;7.00;;;;;;;8.50;74.24;100254.27;125201;1099;104162;-79
2021/04/15 09:44:35;;;;;;;10.40;6.40;;;;;;;8.35;73.92;100243.16;125337;1099;104147;-80
2021/04/15 09:47:13;;;;;;;11.00;6.37;;;;;;;8.20;74.24;100257.39;125096;1099;104647;-79
2021/04/15 09:49:58;;;;;;;13.77;7.70;;;;;;;8.14;73.86;100264.09;125827;1099;104210;-78
2021/04/15 09:52:41;;;;;;;12.07;6.97;;;;;;;8.08;74.49;100254.27;125793;1099;104201;-79
2021/04/15 09:55:33;;;;;;;13.47;7.30;;;;;;;8.04;74.40;100262.80;125811;1099;104195;-78
2021/04/15 09:58:15;;;;;;;14.90;8.43;;;;;;;7.98;74.08;100262.54;125048;1099;117758;-79
2021/04/15 10:00:48;;;;;;;17.00;9.00;;;;;;;7.91;74.08;100259.66;126223;1102;101879;-79
2021/04/15 10:03:25;;;;;;;14.10;8.07;;;;;;;7.99;74.04;100253.88;125998;1099;103799;-80
2021/04/15 10:06:03;;;;;;;16.53;8.47;;;;;;;8.11;74.08;100246.55;124973;1099;104123;-79
2021/04/15 10:08:46;;;;;;;15.90;8.70;;;;;;;8.24;74.03;100251.48;125161;1099;106784;-78
2021/04/15 10:11:28;;;;;;;16.90;8.27;;;;;;;8.40;74.42;100254.72;124886;1099;104162;-79
2021/04/15 10:14:26;;;;;;;16.57;8.43;;;;;;;8.61;74.46;100252.96;124852;1099;104363;-77
2021/04/15 10:17:08;;;;;;;14.90;8.00;;;;;;;8.71;74.11;100253.33;126620;1099;101602;-78
2021/04/15 10:19:57;;;;;;;15.40;7.63;;;;;;;8.80;74.11;100264.16;127192;1099;101501;-77
2021/04/15 10:22:44;;;;;;;13.53;8.10;;;;;;;8.88;73.77;100265.37;125305;1099;104223;-77
2021/04/15 10:25:17;;;;;;;15.93;8.30;;;;;;;8.97;74.00;100262.19;125663;1099;104215;-78
2021/04/15 10:28:09;;;;;;;11.37;7.17;;;;;;;8.96;73.66;100274.39;126680;1099;101904;-78
2021/04/15 10:30:55;;;;;;;14.10;8.00;;;;;;;8.89;73.77;100269.75;125192;1099;104142;-76
2021/04/15 10:33:45;;;;;;;14.73;8.30;;;;;;;8.86;73.26;100274.86;124988;1102;104241;-77
2021/04/15 10:36:47;;;;;;;14.77;7.80;;;;;;;8.92;74.03;100267.25;124922;1099;105042;-76
2021/04/15 10:39:32;;;;;;;14.30;7.73;;;;;;;8.99;73.56;100263.13;125075;1102;120259;-76
2021/04/15 10:42:35;;;;;;;12.27;6.90;;;;;;;9.04;73.12;100268.54;125071;1099;104140;-76
2021/04/15 10:45:20;;;;;;;13.00;7.63;;;;;;;9.07;73.50;100273.89;125123;1099;104274;-76
2021/04/15 10:48:11;;;;;;;16.87;7.63;;;;;;;9.09;73.13;100269.63;125475;1099;104216;-76
2021/04/15 10:50:50;;;;;;;13.50;7.73;;;;;;;9.03;73.22;100272.89;125043;1099;104264;-78
2021/04/15 10:53:45;;;;;;;14.13;7.60;;;;;;;8.92;73.41;100271.60;124865;1102;104226;-78
2021/04/15 10:56:34;;;;;;;15.70;7.20;;;;;;;8.82;73.94;100272.98;124986;1098;104315;-78
2021/04/15 10:59:16;;;;;;;12.67;6.83;;;;;;;8.77;73.88;100278.03;125557;1099;104560;-77
2021/04/15 11:01:48;;;;;;;12.23;7.53;;;;;;;8.69;73.65;100278.55;125047;1099;104169;-76
2021/04/15 11:04:30;;;;;;;15.23;8.30;;;;;;;8.72;74.12;100281.28;125877;1099;104146;-77
2021/04/15 11:07:08;;;;;;;13.20;7.97;;;;;;;8.80;73.64;100277.23;125710;1099;104177;-77
2021/04/15 11:09:40;;;;;;;15.37;7.67;;;;;;;8.79;73.61;100285.94;125059;1099;104178;-77
2021/04/15 11:12:25;;;;;;;15.30;7.97;;;;;;;8.73;73.58;100285.70;125114;1102;104181;-77
2021/04/15 11:15:03;;;;;;;14.38;7.45;;;;;;;8.64;73.56;100299.28;124961;1099;104139;-78
2021/04/15 11:17:42;;;;;;;19.97;8.43;;;;;;;8.55;73.27;100294.56;125092;1099;104165;-78
2021/04/15 11:20:25;;;;;;;15.63;8.60;;;;;;;8.49;73.75;100299.55;124919;1102;118826;-78
2021/04/15 11:23:03;;;;;;;15.10;8.33;;;;;;;8.45;73.76;100302.89;124950;1099;104328;-77
2021/04/15 11:25:36;;;;;;;14.73;7.53;;;;;;;8.43;73.57;100291.41;125087;1099;104201;-77
2021/04/15 11:28:27;;;;;;;14.03;7.80;;;;;;;8.39;72.90;100294.75;125114;1098;104702;-77
2021/04/15 11:31:00;;;;;;;14.50;8.10;;;;;;;8.38;73.61;100306.03;125925;1099;105986;-76
2021/04/15 11:33:36;;;;;;;15.47;8.83;;;;;;;8.33;72.95;100297.12;125114;1099;104139;-78
2021/04/15 11:36:12;;;;;;;15.63;8.80;;;;;;;8.23;72.92;100296.73;125953;1099;104169;-78
2021/04/15 11:38:43;;;;;;;14.67;8.03;;;;;;;8.22;73.42;100294.94;124957;1098;104303;-78
2021/04/15 11:41:20;;;;;;;13.00;7.43;;;;;;;8.23;73.58;100301.08;124941;1099;109424;-78
2021/04/15 11:43:54;;;;;;;16.63;8.40;;;;;;;8.24;73.29;100302.84;125173;1099;104159;-75
2021/04/15 11:46:35;;;;;;;16.43;8.83;;;;;;;8.28;73.59;100300.42;125014;1102;104159;-76
2021/04/15 11:49:12;;;;;;;14.67;9.20;;;;;;;8.28;73.50;100292.58;125007;1102;104342;-77
2021/04/15 11:52:01;;;;;;;14.70;8.80;;;;;;;8.32;73.43;100291.00;124998;1102;104459;-76
2021/04/15 11:54:37;;;;;;;14.90;8.07;;;;;;;8.38;73.50;100300.80;125160;1102;104166;-77
2021/04/15 11:57:26;;;;;;;16.65;8.60;;;;;;;8.48;73.51;100299.48;125050;1102;104725;-77
2021/04/15 12:00:19;;;;;;;15.13;8.23;;;;;;;8.62;73.50;100300.95;125127;1102;104315;-76
2021/04/15 12:03:04;;;;;;;17.67;9.23;;;;;;;8.67;73.16;100303.77;125108;1102;104319;-78
2021/04/15 12:05:38;;;;;;;16.43;10.03;;;;;;;8.60;72.78;100306.13;124978;1103;104194;-75
2021/04/15 12:08:16;;;;;;;18.60;10.30;;;;;;;8.53;73.14;100313.66;125009;1102;104290;-76
2021/04/15 12:10:52;;;;;;;19.67;10.67;;;;;;;8.43;73.40;100309.72;125137;1102;104198;-76